Terminal Aerodrome Forecast
Issued by NWS Sioux Falls, SD

Home | Current Version | Previous Version | Text Only | Print | Product List | Glossary On
Versions: 1 2 3 4 5 6 7 8 9 10 11 12 13 14 15 16 17 18 19 20
000
FTUS43 KFSD 241722
TAFHON
TAF
KHON 241722Z 2418/2518 16015G23KT P6SM SCT025 OVC060
      TEMPO 2418/2420 BKN025
     FM242000 16015G23KT 5SM SHRA OVC025
     FM242300 18012KT P6SM SCT070
     FM250200 21008KT P6SM FEW200
     FM250500 26009KT P6SM FEW250
     FM251100 27012KT P6SM OVC025
     FM251300 28013KT P6SM OVC012
     FM251500 30016G24KT P6SM OVC022=

USA.gov is the U.S. government's official web portal to all federal, state and local government web resources and services.